• Join FlightAware (Why Join?)
  • Login
  • US Flag 
01:42PM EST


 

Airport Tracker/Info


-or-


 

Live Flight TrackerFlight Track Log ✈ JNH9 ✈ 22-Mar-2011 ✈ KLAR - KPHF

Flight Track Log - Related Links

Times and Time Zones

All times are in EDT time to prevent confusion due to time zone crossing. See the JNH9 flight status page for this flight to view local times or setup timezone preferences in your user account.

Time Position Orientation Groundspeed Altitude Reporting Facility
EDT Latitude Longitude Course Direction KTS MPH feet Rate Location/Type
07:54AM 41.2927 -105.4877 283° West  Level FlightAware Approximate
07:59AM 41.2782 -105.2996 280° West  Level FlightAware Approximate
08:00AM 41.3342 -105.7322 79° East 315 362 13,900  Level Denver Center
08:01AM 41.3503 -105.6242 97° East 144 166 16,600 3,300 Climbing Denver Center
08:02AM 41.3389 -105.5028 98° East 317 365 20,500 3,600 Climbing Denver Center
08:03AM 41.3253 -105.3731 96° East 343 395 23,900 2,760 Climbing Denver Center
08:04AM 41.3133 -105.2211 97° East 363 418 26,100 1,980 Climbing Denver Center
08:05AM 41.2989 -105.0694 83° East 394 453 27,900 1,800 Climbing Denver Center
08:06AM 41.3119 -104.9281 80° East 411 473 29,700 1,800 Climbing Denver Center
08:07AM 41.3344 -104.7533 83° East 430 495 31,500 1,500 Climbing Denver Center
08:08AM 41.3486 -104.5869 84° East 448 516 32,800 1,260 Climbing Denver Center
08:09AM 41.3622 -104.4150 84° East 461 531 34,100 1,320 Climbing Denver Center
08:10AM 41.3758 -104.2542 84° East 474 545 35,500 1,560 Climbing Denver Center
08:11AM 41.3908 -104.0600 84° East 485 558 37,300 1,500 Climbing Denver Center
08:12AM 41.4036 -103.8850 85° East 478 550 38,600 1,020 Climbing Denver Center
08:13AM 41.4147 -103.7267 87° East 478 550 39,400 720 Climbing Denver Center
08:14AM 41.4228 -103.5464 87° East 487 560 40,100 780 Climbing Denver Center
08:15AM 41.4300 -103.3467 89° East 482 555 41,000 420 Climbing Denver Center
08:16AM 41.4333 -103.1664 87° East 488 562 41,000  Level Denver Center
08:17AM 41.4389 -102.9944 87° East 498 573 41,100 540 Climbing Denver Center
08:18AM 41.4469 -102.7889 90° East 504 580 42,100 960 Climbing Denver Center
08:19AM 41.4475 -102.6114 88° East 494 568 43,100 840 Climbing Denver Center
08:20AM 41.4525 -102.4533 88° East 478 550 43,800 600 Climbing Denver Center
08:21AM 41.4567 -102.2728 89° East 478 550 44,400 600 Climbing Denver Center
08:22AM 41.4600 -102.0842 89° East 473 544 45,000 300 Climbing Denver Center
08:23AM 41.4617 -101.9122 89° East 467 537 45,000  Level Denver Center
08:24AM 41.4636 -101.7511 88° East 467 537 45,000  Level Denver Center
08:25AM 41.4689 -101.5733 89° East 477 549 45,000  Level Denver Center
08:26AM 41.4706 -101.3708 89° East 483 556 45,000  Level Denver Center
08:27AM 41.4728 -101.1906 89° East 483 556 45,000  Level Denver Center
08:28AM 41.4753 -101.0183 89° East 498 573 45,000  Level Denver Center
08:29AM 41.4769 -100.8381 90° East 498 573 45,000  Level Denver Center
08:30AM 41.4772 -100.6328 89° East 498 573 45,000  Level Denver Center
08:31AM 41.4803 -100.4467 90° East 498 573 45,000  Level Denver Center
08:32AM 41.4808 -100.2581 90° East 498 573 45,000  Level Denver Center
08:33AM 41.4797 -100.0889 90° East 498 573 45,000  Level Denver Center
08:34AM 41.4806 -99.8806 89° East 507 583 45,000  Level Denver Center
08:35AM 41.4822 -99.6892 91° East 512 589 45,000  Level Denver Center
08:37AM 41.4783 -99.2531 89° East 518 596 45,000  Level Minneapolis Center
08:38AM 41.4803 -99.0594 92° East 518 596 45,000  Level Minneapolis Center
08:39AM 41.4756 -98.8650 90° East 518 596 45,000  Level Minneapolis Center
08:40AM 41.4747 -98.6683 90° East 518 596 45,000  Level Minneapolis Center
08:41AM 41.4733 -98.4772 92° East 523 602 45,000  Level Minneapolis Center
08:42AM 41.4675 -98.2831 92° East 523 602 45,000  Level Minneapolis Center
08:43AM 41.4619 -98.0722 92° East 518 596 45,000  Level Minneapolis Center
08:44AM 41.4575 -97.8811 91° East 518 596 45,000  Level Minneapolis Center
08:45AM 41.4547 -97.6844 92° East 518 596 45,000  Level Minneapolis Center
08:46AM 41.4494 -97.4931 91° East 518 596 45,000  Level Minneapolis Center
08:47AM 41.4464 -97.2964 92° East 518 596 45,000  Level Minneapolis Center
08:48AM 41.4406 -97.0997 92° East 523 602 45,000  Level Minneapolis Center
08:49AM 41.4364 -96.9031 92° East 523 602 45,000  Level Minneapolis Center
08:50AM 41.4319 -96.7119 92° East 523 602 45,000  Level Minneapolis Center
08:51AM 41.4272 -96.5183 93° East 523 602 45,000  Level Minneapolis Center
08:52AM 41.4200 -96.3217 92° East 518 596 45,000  Level Minneapolis Center
08:53AM 41.4147 -96.1278 92° East 525 604 45,000  Level Minneapolis Center
08:54AM 41.4108 -95.9397 95° East 519 597 45,000  Level Minneapolis Center
08:55AM 41.3983 -95.7486 92° East 519 597 45,000  Level Minneapolis Center
08:56AM 41.3936 -95.5689 93° East 519 597 45,000  Level Minneapolis Center
08:57AM 41.3847 -95.3750 93° East 519 597 45,000  Level Minneapolis Center
08:58AM 41.3775 -95.1817 93° East 519 597 45,000  Level Minneapolis Center
08:59AM 41.3700 -94.9908 92° East 519 597 45,000  Level Minneapolis Center
09:00AM 41.3644 -94.7972 94° East 519 597 45,000  Level Minneapolis Center
09:01AM 41.3542 -94.6039 93° East 519 597 45,000  Level Minneapolis Center
09:02AM 41.3456 -94.4133 94° East 519 597 45,000  Level Minneapolis Center
09:03AM 41.3347 -94.2197 93° East 519 597 45,000  Level Minneapolis Center
09:06AM 41.3156 -93.8014 95° East 519 597 45,000  Level Chicago Center
09:07AM 41.3019 -93.6097 93° East 519 597 45,000  Level Chicago Center
09:08AM 41.2944 -93.4131 95° East 524 603 45,000  Level Chicago Center
09:09AM 41.2825 -93.2189 96° East 524 603 45,000  Level Chicago Center
09:10AM 41.2681 -93.0272 93° East 522 601 45,000  Level Chicago Center
09:11AM 41.2594 -92.8333 95° East 522 601 45,000  Level Chicago Center
09:12AM 41.2464 -92.6392 95° East 522 601 45,000  Level Chicago Center
09:13AM 41.2331 -92.4481 95° East 522 601 45,000  Level Chicago Center
09:14AM 41.2194 -92.2542 95° East 522 601 45,000  Level Chicago Center
09:15AM 41.2075 -92.0575 96° East 522 601 45,000  Level Chicago Center
09:16AM 41.1931 -91.8667 95° East 522 601 45,000  Level Chicago Center
09:17AM 41.1806 -91.6728 97° East 522 601 45,000  Level Chicago Center
09:18AM 41.1650 -91.5069 95° East 522 601 45,000  Level Chicago Center
09:19AM 41.1517 -91.3161 95° East 522 601 45,000  Level Chicago Center
09:20AM 41.1383 -91.1228 96° East 522 601 45,000  Level Chicago Center
09:21AM 41.1222 -90.9294 96° East 522 601 45,000  Level Chicago Center
09:22AM 41.1081 -90.7389 97° East 522 601 45,000  Level Chicago Center
09:23AM 41.0914 -90.5483 95° East 522 601 45,000  Level Chicago Center
09:24AM 41.0786 -90.3581 97° East 522 601 45,000  Level Chicago Center
09:25AM 41.0614 -90.1650 97° East 522 601 45,000  Level Chicago Center
09:26AM 41.0439 -89.9747 96° East 522 601 45,000  Level Chicago Center
09:27AM 41.0281 -89.7847 96° East 522 601 45,000  Level Chicago Center
09:28AM 41.0119 -89.5947 97° East 522 601 45,000  Level Chicago Center
09:29AM 40.9914 -89.3858 96° East 522 601 45,000  Level Chicago Center
09:30AM 40.9747 -89.1903 98° East 522 601 45,000  Level Chicago Center
09:31AM 40.9553 -89.0036 98° East 522 601 45,000  Level Chicago Center
09:32AM 40.9358 -88.8111 97° East 522 601 45,000  Level Chicago Center
09:33AM 40.9181 -88.6192 98° East 522 601 45,000  Level Chicago Center
09:34AM 40.8981 -88.4325 97° East 522 601 45,000  Level Chicago Center
09:35AM 40.8797 -88.2433 98° East 522 601 45,000  Level Chicago Center
09:36AM 40.8589 -88.0542 97° East 522 601 45,000  Level Chicago Center
09:37AM 40.8400 -87.8653 98° East 522 601 45,000  Level Chicago Center
09:38AM 40.8206 -87.6761 98° East 522 601 45,000  Level Chicago Center
09:39AM 40.8011 -87.4875 101° East 522 601 45,000  Level Chicago Center
09:40AM 40.7750 -87.3072 99° East 511 588 45,000  Level Chicago Center
09:41AM 40.7525 -87.1133 97° East 518 596 45,000  Level Chicago Center
09:42AM 40.7342 -86.9275 98° East 518 596 45,000  Level Chicago Center
09:43AM 40.7133 -86.7419 97° East 516 594 45,000  Level Chicago Center
09:44AM 40.6942 -86.5511 99° East 516 594 45,000  Level Chicago Center
09:45AM 40.6708 -86.3658 99° East 517 595 45,000  Level Chicago Center
09:46AM 40.6497 -86.1972 99° East 523 602 45,000  Level Chicago Center
09:47AM 40.6275 -86.0067 99° East 518 596 45,000  Level Chicago Center
09:48AM 40.5825 -85.6558 100° East 540 621 45,000  Level Indianapolis Center
09:49AM 40.5567 -85.4639 99° East 535 616 45,000  Level Indianapolis Center
09:50AM 40.5344 -85.2747 100° East 535 616 45,000  Level Indianapolis Center
09:51AM 40.5061 -85.0639 101° East 530 610 45,000  Level Indianapolis Center
09:52AM 40.4772 -84.8722 100° East 526 605 45,000  Level Indianapolis Center
09:53AM 40.4519 -84.6836 105° East 526 605 45,000  Level Indianapolis Center
09:54AM 40.4181 -84.5194 123° Southeast 520 598 45,000  Level Indianapolis Center
09:55AM 40.3358 -84.3547 124° Southeast 520 598 45,000  Level Indianapolis Center
09:56AM 40.2514 -84.1933 125° Southeast 541 623 45,000  Level Indianapolis Center
09:57AM 40.1667 -84.0325 124° Southeast 541 623 45,000  Level Indianapolis Center
09:58AM 40.0839 -83.8744 125° Southeast 541 623 45,000 -60 Level Indianapolis Center
09:59AM 39.9989 -83.7169 123° Southeast 541 623 44,900  Descending Indianapolis Center
10:00AM 39.9092 -83.5381 125° Southeast 541 623 45,000  Climbing Indianapolis Center
10:01AM 39.8236 -83.3786 127° Southeast 541 623 45,000  Level Indianapolis Center
10:02AM 39.7419 -83.2356 125° Southeast 550 633 45,000  Level Indianapolis Center
10:03AM 39.6581 -83.0825 125° Southeast 540 621 45,000  Level Indianapolis Center
10:04AM 39.5719 -82.9239 125° Southeast 532 612 45,000  Level Indianapolis Center
10:05AM 39.4875 -82.7686 126° Southeast 532 612 45,000  Level Indianapolis Center
10:06AM 39.4008 -82.6139 126° Southeast 532 612 45,000  Level Indianapolis Center
10:07AM 39.3225 -82.4725 124° Southeast 532 612 45,000  Level Indianapolis Center
10:08AM 39.2356 -82.3050 126° Southeast 527 606 45,000  Level Indianapolis Center
10:09AM 39.1481 -82.1486 126° Southeast 532 612 45,000  Level Indianapolis Center
10:10AM 39.0608 -81.9953 126° Southeast 537 618 45,000  Level Indianapolis Center
10:11AM 38.9753 -81.8422 126° Southeast 537 618 45,000 -300 Level Indianapolis Center
10:12AM 38.8917 -81.6919 127° Southeast 526 605 44,500 -1,200 Descending Indianapolis Center
10:13AM 38.7928 -81.5242 127° Southeast 526 605 42,700 -1,560 Descending Indianapolis Center
10:14AM 38.7003 -81.3644 126° Southeast 533 613 41,400 -900 Descending Indianapolis Center
10:15AM 38.6097 -81.2022 127° Southeast 554 638 41,000 -840 Descending Indianapolis Center
10:18AM 38.4117 -80.8678 127° Southeast 559 643 38,900 -1,080 Descending Washington Center
10:19AM 38.3261 -80.7239 125° Southeast 570 656 37,700 -1,200 Descending Washington Center
10:20AM 38.2369 -80.5644 126° Southeast 570 656 36,600 -1,500 Descending Washington Center
10:21AM 38.1475 -80.4106 110° East 563 648 34,700 -1,980 Descending Washington Center
10:22AM 38.0978 -80.2411 101° East 523 602 32,600 -1,980 Descending Washington Center
10:23AM 38.0658 -80.0414 102° East 521 600 30,800 -1,800 Descending Washington Center
10:24AM 38.0347 -79.8603 102° East 521 600 29,100 -1,680 Descending Washington Center
10:25AM 38.0036 -79.6792 102° East 521 600 27,500 -1,080 Descending Washington Center
10:26AM 37.9739 -79.5036 102° East 515 593 27,000 -360 Descending Washington Center
10:27AM 37.9439 -79.3308 103° East 505 581 26,800 -900 Descending Washington Center
10:28AM 37.9117 -79.1608 107° East 500 575 25,300 -1,320 Descending Washington Center
10:29AM 37.8744 -79.0092 109° East 500 575 24,300 -960 Descending Washington Center
10:30AM 37.8289 -78.8442 110° East 500 575 23,400 -960 Descending Washington Center
10:31AM 37.7811 -78.6817 110° East 489 563 22,400 -1,020 Descending Washington Center
10:32AM 37.7389 -78.5328 110° East 476 548 21,400 -720 Descending Washington Center
10:33AM 37.6886 -78.3631 110° East 463 533 21,000 -240 Descending Washington Center
10:34AM 37.6461 -78.2119 113° Southeast 458 527 21,000  Level Washington Center
10:35AM 37.5972 -78.0686 109° East 453 521 21,000 -60 Level Washington Center
10:36AM 37.5603 -77.9339 106° East 453 521 20,900 -780 Descending Washington Center
10:37AM 37.5256 -77.7811 95° East 453 521 19,500 -1,260 Descending Washington Center
10:38AM 37.5156 -77.6289 95° East 434 499 18,500 -960 Descending Washington Center
10:39AM 37.5056 -77.4819 95° East 428 493 17,600 -780 Descending Washington Center
10:40AM 37.4953 -77.3350 96° East 423 487 17,000 -300 Descending Washington Center
10:41AM 37.4847 -77.1989 96° East 411 473 17,000 -480 Level Washington Center
10:41AM 37.4792 -77.1358 94° East 389 448 16,400 -1,800 Descending Washington Center
10:42AM 37.4742 -77.0494 116° Southeast 388 447 15,300 -2,100 Descending Washington Center
10:42AM 37.4700 -77.0389 94° East 397 457 14,900 -2,640 Descending Washington Center
10:43AM 37.4631 -76.9053 95° East 380 437 12,400 -1,920 Descending Washington Center
10:44AM 37.4542 -76.7822 140° Southeast 347 399 11,100 -1,680 Descending Washington Center
10:45AM 37.3961 -76.7211 179° South 301 346 9,300 -2,220 Descending Washington Center
10:45AM 37.3794 -76.7208 160° South 317 365 8,800 -2,220 Descending Washington Center
10:46AM 37.3089 -76.6886 187° South 286 329 7,100 -2,100 Descending Washington Center
10:46AM 37.2942 -76.6908 171° South 319 367 6,700 -960 Descending Washington Center
10:47AM 37.2131 -76.6742 168° South 280 322 6,000 -420 Descending Washington Center
10:48AM 37.1528 -76.6575 196° South 279 321 6,000  Level Washington Center
10:48AM 37.1381 -76.6628 203° Southwest 257 296 6,000 -420 Level Washington Center
10:49AM 37.1003 -76.6831 251° West 231 266 5,600 -600 Descending Washington Center
10:49AM 37.0961 -76.6986 224° Southwest 201 231 5,400 -900 Descending Washington Center
10:50AM 37.0644 -76.7372 232° Southwest 202 232 4,700 -1,020 Descending Washington Center
10:50AM 37.0581 -76.7475 154° Southeast 199 229 4,400 -1,020 Descending Washington Center
10:51AM 37.0144 -76.7208 116° Southeast 176 203 3,700 -840 Descending Washington Center
10:51AM 37.0103 -76.7103 89° East 222 255 3,600 -900 Descending Washington Center
10:52AM 37.0111 -76.6350 89° East 207 238 2,600 -1,020 Descending Washington Center